Zadar, Croatia

01:52 PM CEST am 23. April 2017 (GMT +0200)
Gortan | | Change Station

Höhe 162 ft 44.10 °N, 15.27 °E | Updated 6 seconds ago

Overcast
Bedeckt
56.3 °F
gefühlte 56.3 °F
N
2.0
Wind Wechselnd Wind aus Ost-Südost
Gusts 3.4 mph

Heute
Max. -- | schwach -- °F
--% Regenrisiko
Gestern
Max. -- | schwach -- °F
Precip. -- inch
Druck 30.09 inch
Sichtweite 6.2 Meilen
Wolken Bedeckt 4000 ft
Taupunkt 41 °F
Feuchtigkeit 56%
Regen 0.00 inch
Schneehöhe Nicht verfügbar..
6:02 AM 7:52 PM
Letztes Viertel, 12% visible
METAR LDZD 231130Z 10006KT 060V140 9999 OVC040 13/03 Q1019 NOSIG
Druck 30.09 inch
Sichtweite 6.2 Meilen
Wolken Bedeckt 4000 ft
Taupunkt 41 °F
Feuchtigkeit 56%
Regen 0.00 inch
Schneehöhe Nicht verfügbar..
6:02 AM 7:52 PM
Letztes Viertel, 12% visible
METAR LDZD 231130Z 10006KT 060V140 9999 OVC040 13/03 Q1019 NOSIG

Get Severe Weather Alerts

Thanks for signing up!

Be on the lookout for a verification email in your inbox.

You'll start receiving the daily forecast at 8 AM.

×

10-Day Weather Forecast

×

Almanac

Astronomie

Apr. 23, 2017 Aufgang Untergang
Genaue Zeit
Bürgerliche Dämmerung
Nautische Dämmerung
Astronomische Dämmerung
Mond
Länge des sichtbaren Lichts
Tageslänge
Tomorrow will be .
, % of the Moon is Illuminated

Heutige Rekorde

Country Highs Country Lows

Community

WunderPhotos

WunderBlog® & News

Nearby

Luftqualität

  Luftqualität LQ Index Schadstoff
Not available.

Schneehöhe

Station Depth Höhe

Erdbebenaktivität

Stadt Distance Mag. Time & Date
Minimum magnitude displayed is 2.5.

küstennahe Wassertemperaturen

Ort Temperatur

Stations

Wetterstationen in der Umgebung

Stationsstandort Temp. Windchill Taupunkt Feuchtigkeit Wind Precip. Höhe Aktualisiert Art